Time;durP1;ratioP1;P1;durP2;ratioP2;P2;SDS_P1;SDS_P2;PMS_P1;PMS_P2;Temp;Humidity;BMP_temperature;BMP_pressure;BME280_temperature;BME280_humidity;BME280_pressure;Samples;Min_cycle;Max_cycle;Signal;HPM_P1;HPM_P2
2021/03/23 00:01:05;;;;;;;17.60;9.77;;;;;;;14.29;46.17;100808.50;5004152;28;20395;-61
2021/03/23 00:03:40;;;;;;;18.73;10.03;;;;;;;14.25;45.94;100803.75;5009773;28;20038;-58
2021/03/23 00:06:08;;;;;;;21.53;10.53;;;;;;;14.29;46.02;100808.50;5004289;28;20129;-60
2021/03/23 00:08:36;;;;;;;26.00;11.97;;;;;;;14.28;46.19;100811.59;4998347;28;20046;-59
2021/03/23 00:11:17;;;;;;;17.00;11.37;;;;;;;14.25;45.90;100813.03;5008721;28;20046;-60
2021/03/23 00:13:45;;;;;;;21.10;11.67;;;;;;;14.16;46.28;100798.81;4998005;28;20108;-61
2021/03/23 00:16:12;;;;;;;21.77;11.07;;;;;;;14.19;46.42;100805.81;5003639;28;20049;-59
2021/03/23 00:18:40;;;;;;;36.23;16.87;;;;;;;14.16;46.35;100814.84;5000425;28;20051;-60
2021/03/23 00:21:08;;;;;;;21.30;13.53;;;;;;;14.14;46.48;100814.28;5001847;28;20534;-62
2021/03/23 00:23:35;;;;;;;19.27;11.63;;;;;;;14.15;46.14;100808.38;5000490;28;20379;-61
2021/03/23 00:26:01;;;;;;;17.17;11.10;;;;;;;14.14;46.10;100817.91;5009369;28;20046;-59
2021/03/23 00:28:27;;;;;;;14.37;10.13;;;;;;;14.04;46.32;100815.22;5002632;28;20096;-60
2021/03/23 00:31:00;;;;;;;19.63;10.88;;;;;;;13.90;46.88;100817.91;5012747;28;20057;-60
2021/03/23 00:33:27;;;;;;;20.23;11.82;;;;;;;13.89;47.05;100812.59;5011176;28;20045;-60
2021/03/23 00:35:57;;;;;;;17.87;10.87;;;;;;;13.86;47.19;100811.22;5006575;28;20481;-62
2021/03/23 00:38:24;;;;;;;20.07;11.53;;;;;;;13.87;47.06;100812.88;5003573;28;20510;-61
2021/03/23 00:41:05;;;;;;;21.83;11.20;;;;;;;13.88;47.08;100814.56;5011782;28;20394;-59
2021/03/23 00:43:31;;;;;;;20.87;12.23;;;;;;;13.87;47.16;100807.25;5004406;28;20038;-60
2021/03/23 00:46:00;;;;;;;18.93;11.40;;;;;;;13.87;47.19;100806.44;4998567;28;20054;-59
2021/03/23 00:48:26;;;;;;;18.10;11.03;;;;;;;13.91;47.23;100813.13;5012487;28;20077;-60
2021/03/23 00:50:53;;;;;;;18.67;11.07;;;;;;;13.96;47.11;100816.72;4999974;28;20048;-61
2021/03/23 00:53:19;;;;;;;19.60;11.10;;;;;;;13.97;47.09;100825.97;5006362;28;20473;-62
2021/03/23 00:55:46;;;;;;;18.27;11.53;;;;;;;13.92;47.33;100815.66;5009832;28;20050;-61
2021/03/23 00:58:13;;;;;;;17.87;11.13;;;;;;;13.88;47.51;100825.81;5004139;28;20050;-61
2021/03/23 01:00:39;;;;;;;21.17;11.53;;;;;;;13.79;47.71;100821.13;5013060;28;20498;-61
2021/03/23 01:03:05;;;;;;;16.77;10.83;;;;;;;13.68;48.14;100817.56;5012398;28;20047;-60
2021/03/23 01:05:34;;;;;;;16.83;11.13;;;;;;;13.60;48.20;100819.03;5004694;28;20045;-62
2021/03/23 01:08:01;;;;;;;19.30;11.83;;;;;;;13.46;48.82;100830.09;4998438;28;20050;-60
2021/03/23 01:10:29;;;;;;;16.67;10.77;;;;;;;13.19;48.98;100796.91;5003328;28;20154;-61
2021/03/23 01:12:59;;;;;;;24.70;10.77;;;;;;;12.94;49.51;100761.47;5009315;28;20069;-61
2021/03/23 01:15:29;;;;;;;19.98;10.05;;;;;;;13.22;49.69;100807.53;5010439;28;20124;-62
2021/03/23 01:17:59;;;;;;;16.73;10.63;;;;;;;13.18;49.94;100806.44;5008398;28;20054;-63
2021/03/23 01:20:28;;;;;;;16.43;9.83;;;;;;;13.01;50.30;100798.44;5002803;28;20139;-62
2021/03/23 01:22:55;;;;;;;20.43;9.43;;;;;;;13.04;50.60;100816.66;5003086;28;20050;-61
2021/03/23 01:25:22;;;;;;;22.13;10.53;;;;;;;13.00;50.76;100815.56;5000696;28;20474;-65
2021/03/23 01:27:49;;;;;;;12.70;9.00;;;;;;;13.03;50.68;100815.81;5009860;28;20136;-61
2021/03/23 01:30:20;;;;;;;26.47;10.40;;;;;;;13.01;50.84;100811.63;5001819;28;20077;-63
2021/03/23 01:33:07;;;;;;;16.03;9.73;;;;;;;13.02;50.76;100807.69;4998729;28;20042;-63
2021/03/23 01:35:43;;;;;;;16.07;9.97;;;;;;;12.96;50.97;100804.09;4988471;28;20046;-63
2021/03/23 01:38:10;;;;;;;16.97;8.83;;;;;;;12.96;51.06;100795.69;4995004;28;20058;-62
2021/03/23 01:40:38;;;;;;;18.70;11.00;;;;;;;13.10;50.86;100806.25;4995597;28;20046;-58
2021/03/23 01:43:06;;;;;;;16.87;10.43;;;;;;;13.19;50.62;100815.69;4994375;28;20459;-61
2021/03/23 01:45:36;;;;;;;16.60;10.00;;;;;;;13.22;50.43;100817.91;5000744;28;20052;-61
2021/03/23 01:48:06;;;;;;;18.95;8.95;;;;;;;13.16;50.45;100821.88;5010422;28;20065;-60
2021/03/23 01:50:33;;;;;;;;;;;;;;;13.08;50.97;100816.91;5002989;28;20042;-59
2021/03/23 01:53:08;;;;;;;14.93;7.60;;;;;;;12.69;51.49;100798.09;5001264;28;19928;-60
2021/03/23 01:55:36;;;;;;;16.57;9.27;;;;;;;12.65;52.05;100805.38;4999112;28;20057;-60
2021/03/23 01:58:03;;;;;;;18.67;10.43;;;;;;;12.69;51.92;100814.91;5002104;28;20505;-60
2021/03/23 02:00:30;;;;;;;16.83;11.23;;;;;;;12.76;51.58;100821.03;5010488;28;20042;-59
2021/03/23 02:02:56;;;;;;;18.37;10.97;;;;;;;12.91;51.30;100823.72;5007418;28;20053;-59
2021/03/23 02:05:31;;;;;;;20.87;10.40;;;;;;;12.99;50.90;100820.34;4993998;28;20046;-59
2021/03/23 02:08:01;;;;;;;22.03;11.33;;;;;;;12.89;50.64;100795.16;5003563;28;20120;-60
2021/03/23 02:10:28;;;;;;;19.20;9.82;;;;;;;13.09;50.38;100824.19;5001991;28;20296;-61
2021/03/23 02:12:58;;;;;;;16.07;9.80;;;;;;;12.96;50.80;100811.66;4998406;28;20049;-61
2021/03/23 02:15:30;;;;;;;16.65;10.63;;;;;;;13.10;50.27;100820.25;5004151;28;20049;-59
2021/03/23 02:18:29;;;;;;;17.87;9.27;;;;;;;13.16;50.05;100817.13;5006252;28;20049;-59
2021/03/23 02:21:10;;;;;;;14.17;8.67;;;;;;;13.12;50.26;100818.81;5001373;28;20100;-61
2021/03/23 02:23:39;;;;;;;15.63;8.37;;;;;;;13.07;50.56;100821.69;4988844;28;20042;-58
2021/03/23 02:26:08;;;;;;;21.63;9.23;;;;;;;13.03;50.51;100818.63;5007919;28;20419;-62
2021/03/23 02:28:53;;;;;;;17.45;10.02;;;;;;;12.97;50.74;100808.56;5004330;28;20058;-61
2021/03/23 02:31:24;;;;;;;19.13;10.03;;;;;;;12.93;50.78;100803.84;5005854;28;20127;-62
2021/03/23 02:33:51;;;;;;;18.60;11.10;;;;;;;13.00;50.75;100815.56;5001106;28;20057;-61
2021/03/23 02:36:20;;;;;;;18.47;9.50;;;;;;;13.07;50.33;100818.03;5001215;28;20102;-61
2021/03/23 02:38:46;;;;;;;18.77;11.87;;;;;;;13.01;50.37;100812.44;5004356;28;20050;-61
2021/03/23 02:41:13;;;;;;;20.67;10.17;;;;;;;13.10;50.21;100826.69;4993057;28;20431;-59
2021/03/23 02:43:39;;;;;;;18.03;9.80;;;;;;;13.04;50.41;100817.47;5005553;28;20058;-59
2021/03/23 02:46:06;;;;;;;18.43;10.03;;;;;;;12.89;51.12;100820.41;5006438;28;20042;-59
2021/03/23 02:48:32;;;;;;;27.33;9.90;;;;;;;12.86;51.07;100822.94;5002327;28;20404;-62
2021/03/23 02:50:59;;;;;;;23.90;11.77;;;;;;;12.59;51.49;100795.34;5003661;28;20065;-62
2021/03/23 02:53:27;;;;;;;21.17;10.50;;;;;;;12.52;52.08;100818.06;5007447;28;20042;-63
2021/03/23 02:55:55;;;;;;;20.17;10.75;;;;;;;12.35;52.62;100814.78;5001912;28;20548;-61
2021/03/23 02:58:24;;;;;;;14.90;9.73;;;;;;;12.26;52.87;100818.16;5007312;28;20487;-62
2021/03/23 03:00:51;;;;;;;17.30;10.05;;;;;;;12.15;53.15;100818.50;5001646;28;20058;-62
2021/03/23 03:03:17;;;;;;;21.67;10.53;;;;;;;12.05;53.47;100811.78;5000731;28;20045;-62
2021/03/23 03:05:52;;;;;;;18.93;10.83;;;;;;;12.00;53.66;100808.16;4997246;28;20548;-62
2021/03/23 03:08:21;;;;;;;15.77;10.13;;;;;;;11.97;53.88;100814.34;5000789;28;20500;-63
2021/03/23 03:10:48;;;;;;;18.27;10.40;;;;;;;11.98;53.47;100819.66;5009319;28;20136;-64
2021/03/23 03:13:16;;;;;;;19.70;11.23;;;;;;;11.86;53.50;100791.13;5005229;28;20053;-64
2021/03/23 03:15:42;;;;;;;25.27;10.53;;;;;;;11.97;53.89;100819.94;5002880;28;20121;-63
2021/03/23 03:18:09;;;;;;;15.40;9.97;;;;;;;11.99;53.49;100801.72;5017055;28;20048;-64
2021/03/23 03:20:36;;;;;;;17.80;11.10;;;;;;;12.00;53.47;100803.41;5001177;28;20049;-62
2021/03/23 03:23:02;;;;;;;20.80;10.97;;;;;;;12.08;53.22;100811.22;5005035;28;20058;-62
2021/03/23 03:25:31;;;;;;;16.57;10.50;;;;;;;12.00;53.45;100803.41;5007729;28;20053;-61
2021/03/23 03:27:58;;;;;;;15.27;9.13;;;;;;;11.96;53.77;100802.28;5004061;28;20045;-63
2021/03/23 03:30:28;;;;;;;16.27;9.27;;;;;;;11.91;54.23;100805.13;5019326;28;20050;-60
2021/03/23 03:32:54;;;;;;;;;;;;;;;12.08;53.28;100808.44;5016172;28;20046;-62
2021/03/23 03:35:24;;;;;;;18.60;10.23;;;;;;;12.09;53.07;100812.06;5010025;28;20314;-61
2021/03/23 03:37:51;;;;;;;20.60;9.73;;;;;;;12.14;52.88;100811.22;5013611;28;20045;-62
2021/03/23 03:40:25;;;;;;;20.20;10.20;;;;;;;12.12;53.11;100810.66;5004681;28;20042;-62
2021/03/23 03:42:52;;;;;;;14.60;9.27;;;;;;;12.08;53.16;100814.03;5004924;28;20046;-61
2021/03/23 03:45:20;;;;;;;17.53;10.17;;;;;;;11.99;53.65;100818.50;5010065;28;20138;-60
2021/03/23 03:47:54;;;;;;;17.47;8.97;;;;;;;11.97;53.21;100805.94;5004076;28;20065;-62
2021/03/23 03:50:22;;;;;;;18.27;10.00;;;;;;;12.01;52.90;100787.47;5009048;28;20051;-61
2021/03/23 03:52:50;;;;;;;17.03;9.77;;;;;;;12.13;53.25;100810.34;5002108;28;20053;-61
2021/03/23 03:55:22;;;;;;;22.00;10.33;;;;;;;12.12;53.03;100811.50;5007609;28;20057;-61
2021/03/23 03:57:48;;;;;;;;;;;;;;;12.16;53.03;100817.34;5005099;28;20396;-64
2021/03/23 04:00:17;;;;;;;18.57;9.80;;;;;;;12.01;53.04;100807.88;5003564;28;19921;-64
2021/03/23 04:02:43;;;;;;;17.33;10.57;;;;;;;12.01;53.44;100824.69;4997467;28;20507;-63
2021/03/23 04:05:21;;;;;;;20.17;10.27;;;;;;;11.80;53.42;100797.84;5006051;28;20046;-62
2021/03/23 04:07:47;;;;;;;18.47;9.10;;;;;;;11.88;53.92;100827.22;5001550;28;20056;-62
2021/03/23 04:10:17;;;;;;;17.23;11.17;;;;;;;11.75;54.52;100825.81;4999498;28;20132;-62
2021/03/23 04:12:44;;;;;;;22.80;12.20;;;;;;;11.66;54.71;100827.50;5006816;28;20050;-61
2021/03/23 04:15:16;;;;;;;23.17;11.67;;;;;;;11.64;54.80;100830.59;4999588;28;20169;-62
2021/03/23 04:17:42;;;;;;;19.37;11.90;;;;;;;11.71;54.36;100833.09;5001798;28;20053;-61
2021/03/23 04:20:09;;;;;;;19.83;10.83;;;;;;;11.88;53.90;100839.25;5011739;28;20465;-62
2021/03/23 04:22:36;;;;;;;18.23;12.17;;;;;;;11.96;53.62;100835.88;5005684;28;20049;-62
2021/03/23 04:25:06;;;;;;;15.47;11.03;;;;;;;11.93;53.44;100819.69;5000608;28;20049;-62
2021/03/23 04:27:34;;;;;;;18.40;11.20;;;;;;;11.78;53.21;100802.88;5007091;28;20606;-62
2021/03/23 04:30:00;;;;;;;23.37;11.53;;;;;;;12.09;53.23;100845.66;5009569;28;20060;-61
2021/03/23 04:32:29;;;;;;;18.77;12.37;;;;;;;12.12;53.03;100838.66;5013892;28;20042;-61
2021/03/23 04:34:59;;;;;;;18.17;11.60;;;;;;;12.10;52.75;100833.31;5001700;28;20050;-62
2021/03/23 04:37:26;;;;;;;19.27;11.20;;;;;;;12.20;52.80;100849.25;5001578;28;20047;-62
2021/03/23 04:39:52;;;;;;;21.77;12.67;;;;;;;12.23;52.90;100862.69;5003921;28;20049;-62
2021/03/23 04:42:18;;;;;;;20.87;11.37;;;;;;;12.23;52.65;100866.31;5002033;28;20128;-61
2021/03/23 04:44:53;;;;;;;21.03;12.40;;;;;;;12.14;52.72;100856.84;4999057;28;20051;-61
2021/03/23 04:47:19;;;;;;;22.67;11.77;;;;;;;12.12;52.96;100867.47;5003117;28;20054;-61
2021/03/23 04:49:46;;;;;;;19.27;11.77;;;;;;;11.92;53.60;100867.50;5009569;28;20056;-61
2021/03/23 04:52:12;;;;;;;18.67;11.23;;;;;;;11.90;53.59;100867.81;5001882;28;20053;-60
2021/03/23 04:54:38;;;;;;;20.80;11.13;;;;;;;11.67;54.05;100848.78;4997911;28;20494;-65
2021/03/23 04:57:06;;;;;;;22.40;11.20;;;;;;;11.67;54.29;100863.59;5002775;28;20071;-64
2021/03/23 04:59:33;;;;;;;20.10;11.33;;;;;;;11.62;54.62;100863.56;5007417;28;20046;-64
2021/03/23 05:02:01;;;;;;;16.33;10.53;;;;;;;11.58;54.59;100862.47;5008682;28;20042;-64
2021/03/23 05:04:27;;;;;;;21.40;11.97;;;;;;;11.51;54.74;100857.16;5004330;28;20145;-65
2021/03/23 05:06:54;;;;;;;18.73;11.40;;;;;;;11.36;54.84;100851.56;5001282;28;20069;-64
2021/03/23 05:09:23;;;;;;;19.13;10.90;;;;;;;11.46;55.20;100862.75;5003396;28;20043;-59
2021/03/23 05:11:49;;;;;;;21.43;11.93;;;;;;;11.48;54.83;100865.25;4999408;28;20046;-61
2021/03/23 05:14:16;;;;;;;26.17;12.27;;;;;;;11.61;54.54;100879.53;5001610;28;20064;-62
2021/03/23 05:16:42;;;;;;;17.00;11.17;;;;;;;11.56;54.80;100871.16;5007171;28;20049;-61
2021/03/23 05:19:09;;;;;;;18.93;10.63;;;;;;;11.43;55.25;100865.28;4999909;28;20057;-59
2021/03/23 05:21:40;;;;;;;19.80;11.50;;;;;;;11.39;55.31;100870.59;5007717;28;20125;-59
2021/03/23 05:24:10;;;;;;;23.87;11.23;;;;;;;11.23;55.53;100852.09;5004665;28;20063;-60
2021/03/23 05:26:37;;;;;;;15.00;8.57;;;;;;;11.28;55.67;100866.06;5003792;28;20053;-60
2021/03/23 05:29:06;;;;;;;16.67;10.93;;;;;;;11.17;55.42;100850.41;5005688;28;20053;-61
2021/03/23 05:31:33;;;;;;;19.23;12.03;;;;;;;11.35;55.42;100861.91;5004635;28;20149;-60
2021/03/23 05:34:03;;;;;;;16.03;9.87;;;;;;;11.35;54.94;100864.72;5000028;28;20042;-60
2021/03/23 05:36:29;;;;;;;17.80;10.33;;;;;;;11.32;55.32;100870.84;4998793;28;20045;-60
2021/03/23 05:38:58;;;;;;;19.60;10.20;;;;;;;11.31;54.96;100873.91;5007348;28;20406;-60
2021/03/23 05:41:41;;;;;;;16.10;8.57;;;;;;;11.23;55.19;100866.09;5008754;28;20054;-64
2021/03/23 05:44:09;;;;;;;13.63;8.93;;;;;;;11.26;55.31;100885.94;5004138;28;20046;-61
2021/03/23 05:46:39;;;;;;;15.07;10.00;;;;;;;11.21;55.08;100871.09;5005544;28;20037;-61
2021/03/23 05:49:06;;;;;;;19.38;11.07;;;;;;;11.41;54.71;100890.69;5008547;28;20088;-62
2021/03/23 05:51:44;;;;;;;15.03;10.33;;;;;;;11.43;54.49;100887.66;5007187;28;20379;-63
2021/03/23 05:54:22;;;;;;;13.50;8.90;;;;;;;11.29;55.03;100888.19;5010635;28;20042;-59
2021/03/23 05:56:53;;;;;;;12.67;8.53;;;;;;;11.09;55.75;100888.97;5003839;28;20064;-60
2021/03/23 05:59:44;;;;;;;14.73;8.40;;;;;;;10.92;56.27;100882.78;5008070;28;20053;-61
2021/03/23 06:02:31;;;;;;;11.37;6.33;;;;;;;10.63;56.63;100869.28;5005695;28;20134;-60
2021/03/23 06:05:26;;;;;;;14.73;9.00;;;;;;;10.68;56.90;100888.00;5003858;28;20584;-66
2021/03/23 06:08:20;;;;;;;15.90;9.33;;;;;;;10.54;57.46;100898.84;4994502;28;20049;-63
2021/03/23 06:10:46;;;;;;;17.37;9.77;;;;;;;10.53;57.49;100899.97;5004360;28;20044;-59
2021/03/23 06:13:31;;;;;;;20.00;9.43;;;;;;;10.50;57.60;100900.50;4999895;28;20137;-63
2021/03/23 06:16:21;;;;;;;17.10;9.30;;;;;;;10.45;57.83;100900.47;4997879;28;20045;-68
2021/03/23 06:19:21;;;;;;;13.77;8.70;;;;;;;10.33;58.08;100897.06;4990424;28;20053;-63
2021/03/23 06:21:56;;;;;;;12.57;8.57;;;;;;;10.37;58.18;100904.63;5006735;28;20123;-59
2021/03/23 06:24:40;;;;;;;17.37;9.23;;;;;;;10.33;58.52;100911.84;5000310;28;20046;-55
2021/03/23 06:27:44;;;;;;;12.90;8.43;;;;;;;10.24;59.01;100916.22;4996755;28;20156;-56
2021/03/23 06:30:40;;;;;;;17.53;9.80;;;;;;;10.16;59.64;100917.59;4993769;28;20046;-57
2021/03/23 06:33:16;;;;;;;12.20;7.00;;;;;;;10.13;59.57;100918.13;5002941;28;20048;-58
2021/03/23 06:36:01;;;;;;;17.37;10.20;;;;;;;10.10;59.66;100915.84;5001750;28;20093;-57
2021/03/23 06:38:40;;;;;;;18.80;10.50;;;;;;;10.13;59.71;100923.69;5012029;28;20168;-59
2021/03/23 06:41:27;;;;;;;16.53;9.77;;;;;;;10.26;59.38;100930.81;5001644;28;20046;-57
2021/03/23 06:44:14;;;;;;;18.03;10.60;;;;;;;10.14;59.64;100917.00;5009926;28;20045;-58
2021/03/23 06:46:44;;;;;;;19.33;11.23;;;;;;;10.28;59.36;100934.16;5005237;28;20050;-59
2021/03/23 06:49:16;;;;;;;24.47;10.57;;;;;;;10.30;59.50;100942.28;5007607;28;20049;-60
2021/03/23 06:51:56;;;;;;;16.35;9.65;;;;;;;10.35;59.48;100947.88;5014325;28;20050;-59
2021/03/23 06:54:26;;;;;;;18.45;10.70;;;;;;;10.38;59.35;100938.97;5001493;28;20064;-62
2021/03/23 06:57:14;;;;;;;21.73;13.40;;;;;;;10.41;59.61;100955.16;4998240;28;20072;-58
2021/03/23 07:00:27;;;;;;;18.37;11.57;;;;;;;10.56;59.36;100948.81;5009499;28;20058;-60
2021/03/23 07:03:29;;;;;;;19.00;12.43;;;;;;;10.71;58.94;100959.25;4962275;28;20073;-59
2021/03/23 07:05:57;;;;;;;21.87;11.77;;;;;;;10.91;58.57;100953.75;4955424;28;20043;-58
2021/03/23 07:08:25;;;;;;;24.97;13.03;;;;;;;11.02;58.13;100935.91;4989781;28;20046;-58
2021/03/23 07:10:51;;;;;;;16.87;10.57;;;;;;;11.30;57.71;100958.91;5010910;28;20689;-59
2021/03/23 07:13:29;;;;;;;23.00;10.27;;;;;;;11.33;57.90;100963.97;5000807;28;20530;-58
2021/03/23 07:16:11;;;;;;;19.57;11.63;;;;;;;11.41;57.65;100960.63;5006982;28;20408;-58
2021/03/23 07:18:46;;;;;;;19.75;9.80;;;;;;;11.54;57.30;100967.63;5003680;28;20058;-58
2021/03/23 07:21:22;;;;;;;15.83;10.70;;;;;;;11.72;56.67;100971.84;5005998;28;20046;-58
2021/03/23 07:24:09;;;;;;;17.43;10.60;;;;;;;11.96;56.41;100980.56;5003419;28;20064;-59
2021/03/23 07:26:38;;;;;;;17.77;8.70;;;;;;;12.02;55.85;100969.09;5004926;28;20042;-55
2021/03/23 07:29:11;;;;;;;14.43;9.15;;;;;;;12.26;55.32;100982.53;5007024;28;20060;-57
2021/03/23 07:31:42;;;;;;;15.00;8.93;;;;;;;12.50;55.01;100975.22;5000870;28;20058;-57
2021/03/23 07:34:18;;;;;;;17.50;9.87;;;;;;;12.77;54.40;100968.41;5009100;28;20050;-58
2021/03/23 07:36:50;;;;;;;15.67;8.50;;;;;;;13.26;53.78;100982.56;5000971;28;20046;-59
2021/03/23 07:40:05;;;;;;;14.93;9.00;;;;;;;13.68;53.14;100977.53;5004460;28;20064;-58
2021/03/23 07:42:44;;;;;;;13.17;8.53;;;;;;;14.17;52.58;100985.84;4905687;29;20051;-58
2021/03/23 07:46:05;;;;;;;13.23;9.07;;;;;;;14.73;51.88;100990.09;4902906;29;20044;-57
2021/03/23 07:48:49;;;;;;;15.80;8.90;;;;;;;15.21;51.12;100975.19;4954041;28;20047;-58
2021/03/23 07:51:18;;;;;;;12.83;8.60;;;;;;;15.81;50.16;101000.84;5003256;28;20057;-59
2021/03/23 07:53:45;;;;;;;12.40;7.80;;;;;;;16.15;49.47;100996.94;4995753;28;20073;-58
2021/03/23 07:56:39;;;;;;;16.43;9.67;;;;;;;16.49;49.34;101002.25;5008417;28;20133;-57
2021/03/23 07:59:46;;;;;;;12.80;7.90;;;;;;;16.77;48.96;101003.16;5001136;28;20128;-57
2021/03/23 08:02:42;;;;;;;20.07;10.50;;;;;;;17.21;48.12;101011.03;4966800;28;20092;-58
2021/03/23 08:05:26;;;;;;;21.93;10.40;;;;;;;17.56;47.40;101010.56;5001758;28;20045;-58
2021/03/23 08:08:06;;;;;;;13.80;8.20;;;;;;;17.90;46.45;100996.81;4984634;28;20391;-57
2021/03/23 08:10:35;;;;;;;;;;;;;;;18.19;47.48;101009.69;5006031;28;20046;-62
2021/03/23 08:13:21;;;;;;;16.67;9.18;;;;;;;18.54;46.05;100999.44;5008457;28;19922;-57
2021/03/23 08:16:15;;;;;;;15.07;9.27;;;;;;;18.91;45.03;101008.66;5001443;28;20053;-56
2021/03/23 08:18:48;;;;;;;15.23;9.00;;;;;;;19.25;43.95;101026.94;5003739;28;20046;-52
2021/03/23 08:21:23;;;;;;;16.08;8.90;;;;;;;19.53;43.43;101011.38;5001814;28;20504;-52
2021/03/23 08:24:27;;;;;;;13.55;8.23;;;;;;;19.83;43.01;101018.13;4995443;28;20100;-54
2021/03/23 08:27:08;;;;;;;20.45;10.40;;;;;;;20.17;41.77;101029.78;5005347;28;20417;-54
2021/03/23 08:29:54;;;;;;;14.07;9.35;;;;;;;20.51;41.15;101023.28;5002571;28;20060;-55
2021/03/23 08:32:37;;;;;;;13.98;9.43;;;;;;;20.79;40.32;101021.72;4999122;28;20744;-55
2021/03/23 08:35:10;;;;;;;15.98;10.38;;;;;;;21.08;39.70;101025.78;5000151;28;20049;-54
2021/03/23 08:38:01;;;;;;;15.05;8.60;;;;;;;21.35;38.92;101024.53;5000252;28;20082;-55
2021/03/23 08:40:55;;;;;;;14.75;7.85;;;;;;;21.55;38.95;101030.59;4975655;28;20074;-55
2021/03/23 08:43:37;;;;;;;13.93;7.97;;;;;;;21.76;38.09;101040.00;5000433;28;20050;-53
2021/03/23 08:46:08;;;;;;;17.33;8.23;;;;;;;21.87;37.66;101041.25;5003752;28;20069;-55
2021/03/23 08:48:42;;;;;;;14.50;8.07;;;;;;;22.12;37.15;101047.06;5001114;28;20056;-58
2021/03/23 08:51:13;;;;;;;13.35;7.43;;;;;;;22.27;36.84;101049.34;4994557;28;20058;-54
2021/03/23 08:53:44;;;;;;;13.43;8.85;;;;;;;22.47;36.57;101047.66;5008172;28;20069;-55
2021/03/23 08:56:11;;;;;;;17.25;8.95;;;;;;;22.30;36.15;101002.31;5007062;28;20169;-55
2021/03/23 08:58:39;;;;;;;15.77;9.40;;;;;;;22.67;35.79;101063.88;5003693;28;20057;-53
2021/03/23 09:01:29;;;;;;;15.75;9.10;;;;;;;22.64;36.06;101053.19;5002989;28;20041;-58
2021/03/23 09:04:01;;;;;;;12.75;9.15;;;;;;;22.86;35.37;101051.09;5009400;28;20046;-55
2021/03/23 09:06:46;;;;;;;14.05;9.25;;;;;;;22.98;35.52;101056.03;5007950;28;20050;-54
2021/03/23 09:09:30;;;;;;;15.77;8.23;;;;;;;23.16;34.83;101058.31;5006549;28;20387;-55
2021/03/23 09:12:13;;;;;;;13.07;7.95;;;;;;;23.44;34.31;101069.03;5008928;28;20126;-57
2021/03/23 09:15:15;;;;;;;14.30;8.30;;;;;;;23.45;34.33;101070.69;5004061;28;20573;-57
2021/03/23 09:18:09;;;;;;;12.68;6.85;;;;;;;23.54;33.78;101071.41;5001207;28;20064;-58
2021/03/23 09:20:38;;;;;;;9.05;6.78;;;;;;;23.79;33.39;101072.25;5010233;28;20049;-58
2021/03/23 09:23:17;;;;;;;11.63;6.93;;;;;;;23.85;33.46;101075.69;5007150;28;20501;-52
2021/03/23 09:25:52;;;;;;;15.65;7.47;;;;;;;24.18;32.27;101081.25;5007523;28;20069;-56
2021/03/23 09:28:29;;;;;;;11.75;6.53;;;;;;;24.35;31.85;101082.97;5006494;28;20850;-57
2021/03/23 09:31:05;;;;;;;11.13;7.38;;;;;;;24.52;31.18;101085.56;5002753;28;20410;-55
2021/03/23 09:33:39;;;;;;;12.00;9.90;;;;;;;24.76;32.40;101084.63;4999215;28;20061;-58
2021/03/23 09:36:12;;;;;;;15.35;9.90;;;;;;;25.02;32.66;101091.84;5003101;28;20120;-56
2021/03/23 09:38:43;;;;;;;18.48;10.18;;;;;;;25.25;32.80;101101.50;5010428;28;20157;-58
2021/03/23 09:41:38;;;;;;;15.38;9.70;;;;;;;25.51;32.70;101100.16;5008552;28;20048;-55
2021/03/23 09:44:04;;;;;;;14.95;10.05;;;;;;;25.81;32.40;101108.25;5002539;28;20054;-58
2021/03/23 09:46:48;;;;;;;12.23;9.05;;;;;;;25.97;31.71;101103.34;5007110;28;20090;-57
2021/03/23 09:49:18;;;;;;;12.00;7.97;;;;;;;26.00;31.85;101108.34;5017159;28;20049;-57
2021/03/23 09:52:04;;;;;;;9.00;7.68;;;;;;;25.88;32.82;101105.56;5008851;28;20069;-57
2021/03/23 09:54:35;;;;;;;9.50;7.78;;;;;;;25.79;32.94;101108.63;4998093;28;20057;-57
2021/03/23 09:57:14;;;;;;;11.38;8.20;;;;;;;25.84;32.34;101102.63;5003590;28;20058;-55
2021/03/23 10:00:05;;;;;;;13.32;7.85;;;;;;;25.99;32.41;101118.13;5012668;28;20084;-56
2021/03/23 10:02:34;;;;;;;11.55;8.55;;;;;;;26.00;32.01;101096.88;5008154;28;20042;-57
2021/03/23 10:05:26;;;;;;;12.30;8.73;;;;;;;26.12;32.26;101121.69;5001729;28;20073;-57
2021/03/23 10:08:09;;;;;;;12.27;7.50;;;;;;;26.27;31.47;101117.13;4995863;28;20085;-56
2021/03/23 10:10:37;;;;;;;10.95;6.60;;;;;;;26.53;30.66;101120.22;5007858;28;20180;-54
2021/03/23 10:13:27;;;;;;;13.00;6.93;;;;;;;26.49;31.19;101112.72;5004573;28;20110;-54
2021/03/23 10:15:55;;;;;;;11.77;7.65;;;;;;;26.84;30.33;101118.41;4995415;28;20046;-56
2021/03/23 10:18:27;;;;;;;9.43;6.63;;;;;;;26.91;29.10;101095.63;5003569;28;20092;-56
2021/03/23 10:21:11;;;;;;;11.57;6.40;;;;;;;26.63;29.03;101111.03;5004433;28;20046;-58
2021/03/23 10:23:57;;;;;;;11.15;7.07;;;;;;;26.76;29.71;101099.41;5000794;28;20050;-55
2021/03/23 10:26:31;;;;;;;11.43;6.85;;;;;;;26.83;30.08;101102.41;5005777;28;20486;-58
2021/03/23 10:29:17;;;;;;;9.52;6.25;;;;;;;27.33;29.46;101106.28;5001905;28;20065;-58
2021/03/23 10:31:56;;;;;;;10.57;6.47;;;;;;;27.92;29.39;101106.88;5004576;28;20057;-57
2021/03/23 10:34:27;;;;;;;9.85;6.80;;;;;;;28.50;28.61;101118.84;4999209;28;20042;-58
2021/03/23 10:36:55;;;;;;;11.25;7.85;;;;;;;28.84;28.09;101124.63;5001577;28;20128;-54
2021/03/23 10:39:43;;;;;;;10.00;6.80;;;;;;;29.11;27.90;101110.19;5003575;28;20104;-56
2021/03/23 10:42:30;;;;;;;9.90;6.97;;;;;;;29.34;27.31;101112.91;5007393;28;20060;-56
2021/03/23 10:45:34;;;;;;;10.23;6.45;;;;;;;29.30;27.80;101112.84;5000269;28;20141;-57
2021/03/23 10:48:07;;;;;;;10.85;6.50;;;;;;;29.35;27.85;101118.25;4999899;28;20050;-57
2021/03/23 10:50:41;;;;;;;9.40;6.80;;;;;;;29.40;27.70;101106.38;4980125;28;20048;-57
2021/03/23 10:53:11;;;;;;;8.30;6.80;;;;;;;29.60;27.33;101109.84;5005787;28;20054;-57
2021/03/23 10:55:58;;;;;;;8.57;6.97;;;;;;;29.57;27.25;101112.69;5002187;28;20135;-57
2021/03/23 10:58:30;;;;;;;9.93;6.35;;;;;;;29.78;27.15;101107.16;4999950;28;20475;-57
2021/03/23 11:01:10;;;;;;;14.57;7.05;;;;;;;30.17;26.59;101113.19;5007671;28;20046;-58
2021/03/23 11:03:42;;;;;;;9.80;7.05;;;;;;;30.47;26.18;101114.22;5002821;28;20081;-58
2021/03/23 11:06:30;;;;;;;11.00;7.70;;;;;;;30.39;26.01;101105.53;4998864;28;20049;-57
2021/03/23 11:08:57;;;;;;;12.15;7.32;;;;;;;30.12;26.36;101092.56;4994304;28;20047;-57
2021/03/23 11:11:24;;;;;;;9.73;6.88;;;;;;;30.25;26.30;101114.06;5004199;28;20506;-57
2021/03/23 11:13:50;;;;;;;8.95;7.07;;;;;;;30.44;25.95;101116.66;4994795;28;20453;-57
2021/03/23 11:16:20;;;;;;;12.30;8.00;;;;;;;30.13;25.95;101094.22;5001412;28;20038;-58
2021/03/23 11:18:48;;;;;;;11.18;7.05;;;;;;;30.30;26.23;101112.88;5001033;28;20146;-59
2021/03/23 11:21:18;;;;;;;9.30;6.77;;;;;;;30.55;26.21;101104.38;4998216;28;20074;-58
2021/03/23 11:23:48;;;;;;;13.95;6.85;;;;;;;30.40;26.32;101045.84;4998487;28;20078;-58
2021/03/23 11:26:19;;;;;;;8.75;6.68;;;;;;;30.68;25.69;101097.84;5004397;28;20433;-56
2021/03/23 11:28:46;;;;;;;11.13;6.45;;;;;;;30.54;25.71;101102.72;5002562;28;20475;-56
2021/03/23 11:31:16;;;;;;;12.82;6.72;;;;;;;30.52;25.78;101096.53;4997282;28;20047;-57
2021/03/23 11:33:48;;;;;;;10.35;6.88;;;;;;;30.67;25.62;101096.19;4997685;28;20064;-57
2021/03/23 11:36:15;;;;;;;10.60;6.82;;;;;;;31.07;25.81;101102.94;5002225;28;20049;-58
2021/03/23 11:38:42;;;;;;;14.43;7.60;;;;;;;31.35;24.96;101113.75;5002404;28;20391;-57
2021/03/23 11:41:15;;;;;;;13.18;7.75;;;;;;;31.36;24.89;101103.84;5003766;28;20068;-57
2021/03/23 11:43:46;;;;;;;13.70;7.32;;;;;;;31.43;24.97;101091.50;5004097;28;20051;-58
2021/03/23 11:46:33;;;;;;;11.68;7.10;;;;;;;31.27;25.10;101100.50;4995230;28;20490;-59